sensor_id;sensor_type;location;lat;lon;timestamp;P1;durP1;ratioP1;P2;durP2;ratioP2
8596;SDS011;4336;49.310;8.646;2022-09-01T00:00:38;6.63;;;6.03;;
8596;SDS011;4336;49.310;8.646;2022-09-01T00:03:06;7.03;;;5.73;;
8596;SDS011;4336;49.310;8.646;2022-09-01T00:05:36;6.70;;;5.47;;
8596;SDS011;4336;49.310;8.646;2022-09-01T00:08:03;6.20;;;5.70;;
8596;SDS011;4336;49.310;8.646;2022-09-01T00:10:29;5.70;;;5.20;;
8596;SDS011;4336;49.310;8.646;2022-09-01T00:12:56;6.70;;;6.13;;
8596;SDS011;4336;49.310;8.646;2022-09-01T00:15:22;6.80;;;6.10;;
8596;SDS011;4336;49.310;8.646;2022-09-01T00:17:48;7.13;;;5.50;;
8596;SDS011;4336;49.310;8.646;2022-09-01T00:20:14;5.93;;;5.43;;
8596;SDS011;4336;49.310;8.646;2022-09-01T00:22:40;6.33;;;5.83;;
8596;SDS011;4336;49.310;8.646;2022-09-01T00:25:07;6.23;;;5.73;;
8596;SDS011;4336;49.310;8.646;2022-09-01T00:27:33;6.10;;;5.60;;
8596;SDS011;4336;49.310;8.646;2022-09-01T00:29:59;6.30;;;5.70;;
8596;SDS011;4336;49.310;8.646;2022-09-01T00:32:26;6.60;;;6.00;;
8596;SDS011;4336;49.310;8.646;2022-09-01T00:34:52;6.07;;;5.57;;
8596;SDS011;4336;49.310;8.646;2022-09-01T00:37:18;8.07;;;6.10;;
8596;SDS011;4336;49.310;8.646;2022-09-01T00:39:45;6.50;;;5.90;;
8596;SDS011;4336;49.310;8.646;2022-09-01T00:42:11;6.60;;;6.00;;
8596;SDS011;4336;49.310;8.646;2022-09-01T00:44:37;6.43;;;5.63;;
8596;SDS011;4336;49.310;8.646;2022-09-01T00:47:03;6.37;;;5.77;;
8596;SDS011;4336;49.310;8.646;2022-09-01T00:49:32;6.23;;;5.63;;
8596;SDS011;4336;49.310;8.646;2022-09-01T00:52:01;6.50;;;5.90;;
8596;SDS011;4336;49.310;8.646;2022-09-01T00:54:34;7.97;;;6.03;;
8596;SDS011;4336;49.310;8.646;2022-09-01T00:57:01;6.27;;;5.77;;
8596;SDS011;4336;49.310;8.646;2022-09-01T00:59:27;7.73;;;6.27;;
8596;SDS011;4336;49.310;8.646;2022-09-01T01:01:55;7.53;;;6.00;;
8596;SDS011;4336;49.310;8.646;2022-09-01T01:04:22;6.40;;;5.90;;
8596;SDS011;4336;49.310;8.646;2022-09-01T01:06:50;6.27;;;5.77;;
8596;SDS011;4336;49.310;8.646;2022-09-01T01:09:23;6.13;;;5.63;;
8596;SDS011;4336;49.310;8.646;2022-09-01T01:11:49;6.23;;;5.73;;
8596;SDS011;4336;49.310;8.646;2022-09-01T01:14:16;6.57;;;5.97;;
8596;SDS011;4336;49.310;8.646;2022-09-01T01:16:46;6.27;;;5.77;;
8596;SDS011;4336;49.310;8.646;2022-09-01T01:19:16;6.83;;;6.20;;
8596;SDS011;4336;49.310;8.646;2022-09-01T01:22:05;8.27;;;7.00;;
8596;SDS011;4336;49.310;8.646;2022-09-01T01:24:51;6.37;;;5.87;;
8596;SDS011;4336;49.310;8.646;2022-09-01T01:27:17;7.13;;;6.50;;
8596;SDS011;4336;49.310;8.646;2022-09-01T01:29:47;6.77;;;6.17;;
8596;SDS011;4336;49.310;8.646;2022-09-01T01:32:18;6.90;;;6.20;;
8596;SDS011;4336;49.310;8.646;2022-09-01T01:34:45;6.70;;;6.07;;
8596;SDS011;4336;49.310;8.646;2022-09-01T01:37:12;7.00;;;6.30;;
8596;SDS011;4336;49.310;8.646;2022-09-01T01:39:39;6.80;;;6.20;;
8596;SDS011;4336;49.310;8.646;2022-09-01T01:42:07;8.70;;;6.10;;
8596;SDS011;4336;49.310;8.646;2022-09-01T01:44:34;6.70;;;6.10;;
8596;SDS011;4336;49.310;8.646;2022-09-01T01:47:03;6.83;;;6.23;;
8596;SDS011;4336;49.310;8.646;2022-09-01T01:49:35;7.07;;;6.47;;
8596;SDS011;4336;49.310;8.646;2022-09-01T01:52:02;6.80;;;6.20;;
8596;SDS011;4336;49.310;8.646;2022-09-01T01:54:30;7.07;;;6.37;;
8596;SDS011;4336;49.310;8.646;2022-09-01T01:56:58;7.83;;;6.43;;
8596;SDS011;4336;49.310;8.646;2022-09-01T01:59:24;6.80;;;6.20;;
8596;SDS011;4336;49.310;8.646;2022-09-01T02:01:53;7.00;;;6.40;;
8596;SDS011;4336;49.310;8.646;2022-09-01T02:04:20;6.93;;;6.33;;
8596;SDS011;4336;49.310;8.646;2022-09-01T02:06:47;6.37;;;5.80;;
8596;SDS011;4336;49.310;8.646;2022-09-01T02:09:16;6.80;;;6.20;;
8596;SDS011;4336;49.310;8.646;2022-09-01T02:11:42;7.20;;;6.50;;
8596;SDS011;4336;49.310;8.646;2022-09-01T02:14:10;7.33;;;6.63;;
8596;SDS011;4336;49.310;8.646;2022-09-01T02:16:39;8.50;;;6.23;;
8596;SDS011;4336;49.310;8.646;2022-09-01T02:19:06;6.87;;;6.27;;
8596;SDS011;4336;49.310;8.646;2022-09-01T02:21:34;7.00;;;6.30;;
8596;SDS011;4336;49.310;8.646;2022-09-01T02:24:03;7.17;;;5.80;;
8596;SDS011;4336;49.310;8.646;2022-09-01T02:26:31;7.73;;;6.93;;
8596;SDS011;4336;49.310;8.646;2022-09-01T02:28:58;7.20;;;6.57;;
8596;SDS011;4336;49.310;8.646;2022-09-01T02:31:29;7.57;;;6.87;;
8596;SDS011;4336;49.310;8.646;2022-09-01T02:33:58;6.70;;;6.10;;
8596;SDS011;4336;49.310;8.646;2022-09-01T02:36:25;7.13;;;6.47;;
8596;SDS011;4336;49.310;8.646;2022-09-01T02:38:52;8.53;;;6.80;;
8596;SDS011;4336;49.310;8.646;2022-09-01T02:41:19;7.43;;;6.43;;
8596;SDS011;4336;49.310;8.646;2022-09-01T02:43:48;7.23;;;5.77;;
8596;SDS011;4336;49.310;8.646;2022-09-01T02:46:14;7.03;;;6.23;;
8596;SDS011;4336;49.310;8.646;2022-09-01T02:48:41;7.50;;;6.80;;
8596;SDS011;4336;49.310;8.646;2022-09-01T02:51:11;8.43;;;6.60;;
8596;SDS011;4336;49.310;8.646;2022-09-01T02:53:38;6.73;;;6.13;;
8596;SDS011;4336;49.310;8.646;2022-09-01T02:56:08;7.07;;;6.47;;
8596;SDS011;4336;49.310;8.646;2022-09-01T02:58:40;8.20;;;6.50;;
8596;SDS011;4336;49.310;8.646;2022-09-01T03:01:12;6.77;;;6.17;;
8596;SDS011;4336;49.310;8.646;2022-09-01T03:03:38;7.50;;;6.80;;
8596;SDS011;4336;49.310;8.646;2022-09-01T03:06:05;7.77;;;7.03;;
8596;SDS011;4336;49.310;8.646;2022-09-01T03:08:34;7.53;;;6.80;;
8596;SDS011;4336;49.310;8.646;2022-09-01T03:11:03;6.70;;;6.10;;
8596;SDS011;4336;49.310;8.646;2022-09-01T03:13:31;7.20;;;6.50;;
8596;SDS011;4336;49.310;8.646;2022-09-01T03:15:57;7.37;;;6.50;;
8596;SDS011;4336;49.310;8.646;2022-09-01T03:18:24;7.10;;;6.50;;
8596;SDS011;4336;49.310;8.646;2022-09-01T03:20:50;7.27;;;6.57;;
8596;SDS011;4336;49.310;8.646;2022-09-01T03:23:17;7.70;;;7.00;;
8596;SDS011;4336;49.310;8.646;2022-09-01T03:25:44;7.67;;;6.97;;
8596;SDS011;4336;49.310;8.646;2022-09-01T03:28:11;6.93;;;6.33;;
8596;SDS011;4336;49.310;8.646;2022-09-01T03:30:39;9.93;;;6.80;;
8596;SDS011;4336;49.310;8.646;2022-09-01T03:33:09;8.43;;;6.97;;
8596;SDS011;4336;49.310;8.646;2022-09-01T03:35:35;7.97;;;7.17;;
8596;SDS011;4336;49.310;8.646;2022-09-01T03:38:02;7.60;;;6.80;;
8596;SDS011;4336;49.310;8.646;2022-09-01T03:40:29;7.50;;;6.80;;
8596;SDS011;4336;49.310;8.646;2022-09-01T03:42:57;10.50;;;6.93;;
8596;SDS011;4336;49.310;8.646;2022-09-01T03:45:24;9.20;;;6.17;;
8596;SDS011;4336;49.310;8.646;2022-09-01T03:47:51;7.77;;;6.83;;
8596;SDS011;4336;49.310;8.646;2022-09-01T03:50:20;7.90;;;7.17;;
8596;SDS011;4336;49.310;8.646;2022-09-01T03:52:51;7.10;;;6.40;;
8596;SDS011;4336;49.310;8.646;2022-09-01T03:55:19;7.00;;;6.30;;
8596;SDS011;4336;49.310;8.646;2022-09-01T03:57:49;7.77;;;6.50;;
8596;SDS011;4336;49.310;8.646;2022-09-01T04:00:16;7.00;;;6.40;;
8596;SDS011;4336;49.310;8.646;2022-09-01T04:02:45;8.97;;;7.23;;
8596;SDS011;4336;49.310;8.646;2022-09-01T04:05:14;7.30;;;6.60;;
8596;SDS011;4336;49.310;8.646;2022-09-01T04:07:40;6.90;;;6.30;;
8596;SDS011;4336;49.310;8.646;2022-09-01T04:10:10;7.37;;;6.67;;
8596;SDS011;4336;49.310;8.646;2022-09-01T04:12:36;7.40;;;6.77;;
8596;SDS011;4336;49.310;8.646;2022-09-01T04:15:03;7.50;;;6.87;;
8596;SDS011;4336;49.310;8.646;2022-09-01T04:17:30;7.73;;;6.50;;
8596;SDS011;4336;49.310;8.646;2022-09-01T04:20:15;7.70;;;6.90;;
8596;SDS011;4336;49.310;8.646;2022-09-01T04:22:44;7.80;;;6.90;;
8596;SDS011;4336;49.310;8.646;2022-09-01T04:25:12;6.80;;;6.20;;
8596;SDS011;4336;49.310;8.646;2022-09-01T04:27:40;10.00;;;6.60;;
8596;SDS011;4336;49.310;8.646;2022-09-01T04:30:09;7.10;;;6.37;;
8596;SDS011;4336;49.310;8.646;2022-09-01T04:32:37;7.07;;;6.47;;
8596;SDS011;4336;49.310;8.646;2022-09-01T04:35:05;7.60;;;6.90;;
8596;SDS011;4336;49.310;8.646;2022-09-01T04:37:32;8.40;;;6.90;;
8596;SDS011;4336;49.310;8.646;2022-09-01T04:40:02;7.63;;;6.93;;
8596;SDS011;4336;49.310;8.646;2022-09-01T04:42:30;7.00;;;6.40;;
8596;SDS011;4336;49.310;8.646;2022-09-01T04:44:57;7.43;;;6.73;;
8596;SDS011;4336;49.310;8.646;2022-09-01T04:47:26;7.63;;;6.93;;
8596;SDS011;4336;49.310;8.646;2022-09-01T04:49:56;8.73;;;7.33;;
8596;SDS011;4336;49.310;8.646;2022-09-01T04:52:24;7.60;;;6.90;;
8596;SDS011;4336;49.310;8.646;2022-09-01T04:54:51;8.17;;;7.37;;
8596;SDS011;4336;49.310;8.646;2022-09-01T04:57:19;7.97;;;7.20;;
8596;SDS011;4336;49.310;8.646;2022-09-01T04:59:45;7.90;;;7.10;;
8596;SDS011;4336;49.310;8.646;2022-09-01T05:02:12;7.73;;;7.03;;
8596;SDS011;4336;49.310;8.646;2022-09-01T05:04:38;8.57;;;7.30;;
8596;SDS011;4336;49.310;8.646;2022-09-01T05:07:09;7.30;;;6.63;;
8596;SDS011;4336;49.310;8.646;2022-09-01T05:09:38;8.03;;;7.03;;
8596;SDS011;4336;49.310;8.646;2022-09-01T05:12:23;7.57;;;6.80;;
8596;SDS011;4336;49.310;8.646;2022-09-01T05:14:52;8.17;;;7.37;;
8596;SDS011;4336;49.310;8.646;2022-09-01T05:17:20;7.63;;;6.93;;
8596;SDS011;4336;49.310;8.646;2022-09-01T05:19:49;8.13;;;7.33;;
8596;SDS011;4336;49.310;8.646;2022-09-01T05:22:15;8.33;;;7.40;;
8596;SDS011;4336;49.310;8.646;2022-09-01T05:24:53;13.67;;;7.43;;
8596;SDS011;4336;49.310;8.646;2022-09-01T05:27:19;10.80;;;7.97;;
8596;SDS011;4336;49.310;8.646;2022-09-01T05:29:46;9.60;;;7.37;;
8596;SDS011;4336;49.310;8.646;2022-09-01T05:32:14;7.73;;;6.93;;
8596;SDS011;4336;49.310;8.646;2022-09-01T05:34:40;8.37;;;7.00;;
8596;SDS011;4336;49.310;8.646;2022-09-01T05:37:08;8.07;;;7.10;;
8596;SDS011;4336;49.310;8.646;2022-09-01T05:39:36;7.43;;;6.73;;
8596;SDS011;4336;49.310;8.646;2022-09-01T05:42:04;8.77;;;7.23;;
8596;SDS011;4336;49.310;8.646;2022-09-01T05:44:33;8.93;;;7.63;;
8596;SDS011;4336;49.310;8.646;2022-09-01T05:47:00;7.33;;;6.63;;
8596;SDS011;4336;49.310;8.646;2022-09-01T05:49:28;8.33;;;7.53;;
8596;SDS011;4336;49.310;8.646;2022-09-01T05:51:58;8.13;;;7.33;;
8596;SDS011;4336;49.310;8.646;2022-09-01T05:54:27;9.37;;;7.70;;
8596;SDS011;4336;49.310;8.646;2022-09-01T05:56:55;8.27;;;7.07;;
8596;SDS011;4336;49.310;8.646;2022-09-01T05:59:25;7.70;;;6.90;;
8596;SDS011;4336;49.310;8.646;2022-09-01T06:02:08;8.00;;;7.20;;
8596;SDS011;4336;49.310;8.646;2022-09-01T06:04:36;7.50;;;6.80;;
8596;SDS011;4336;49.310;8.646;2022-09-01T06:07:11;6.73;;;6.07;;
8596;SDS011;4336;49.310;8.646;2022-09-01T06:09:43;6.63;;;6.00;;
8596;SDS011;4336;49.310;8.646;2022-09-01T06:12:09;7.60;;;6.90;;
8596;SDS011;4336;49.310;8.646;2022-09-01T06:14:42;6.93;;;6.23;;
8596;SDS011;4336;49.310;8.646;2022-09-01T06:17:09;8.80;;;6.40;;
8596;SDS011;4336;49.310;8.646;2022-09-01T06:19:36;7.27;;;6.57;;
8596;SDS011;4336;49.310;8.646;2022-09-01T06:22:04;6.70;;;6.10;;
8596;SDS011;4336;49.310;8.646;2022-09-01T06:24:30;7.43;;;6.73;;
8596;SDS011;4336;49.310;8.646;2022-09-01T06:26:56;7.20;;;6.50;;
8596;SDS011;4336;49.310;8.646;2022-09-01T06:29:23;7.37;;;6.67;;
8596;SDS011;4336;49.310;8.646;2022-09-01T06:31:49;6.80;;;6.20;;
8596;SDS011;4336;49.310;8.646;2022-09-01T06:34:17;6.70;;;6.10;;
8596;SDS011;4336;49.310;8.646;2022-09-01T06:36:45;12.37;;;6.37;;
8596;SDS011;4336;49.310;8.646;2022-09-01T06:39:12;6.73;;;6.13;;
8596;SDS011;4336;49.310;8.646;2022-09-01T06:41:48;7.00;;;6.40;;
8596;SDS011;4336;49.310;8.646;2022-09-01T06:44:19;7.23;;;6.33;;
8596;SDS011;4336;49.310;8.646;2022-09-01T06:46:53;7.13;;;5.83;;
8596;SDS011;4336;49.310;8.646;2022-09-01T06:49:19;6.90;;;6.30;;
8596;SDS011;4336;49.310;8.646;2022-09-01T06:51:48;7.13;;;6.43;;
8596;SDS011;4336;49.310;8.646;2022-09-01T06:54:19;7.07;;;6.40;;
8596;SDS011;4336;49.310;8.646;2022-09-01T06:56:47;8.80;;;7.20;;
8596;SDS011;4336;49.310;8.646;2022-09-01T06:59:14;7.50;;;6.80;;
8596;SDS011;4336;49.310;8.646;2022-09-01T07:01:43;8.60;;;7.77;;
8596;SDS011;4336;49.310;8.646;2022-09-01T07:04:14;7.93;;;7.13;;
8596;SDS011;4336;49.310;8.646;2022-09-01T07:06:47;7.43;;;6.70;;
8596;SDS011;4336;49.310;8.646;2022-09-01T07:09:17;7.10;;;6.50;;
8596;SDS011;4336;49.310;8.646;2022-09-01T07:12:04;12.40;;;7.60;;
8596;SDS011;4336;49.310;8.646;2022-09-01T07:14:31;8.77;;;7.83;;
8596;SDS011;4336;49.310;8.646;2022-09-01T07:16:57;10.20;;;8.60;;
8596;SDS011;4336;49.310;8.646;2022-09-01T07:19:23;9.30;;;8.33;;
8596;SDS011;4336;49.310;8.646;2022-09-01T07:21:57;9.30;;;8.23;;
8596;SDS011;4336;49.310;8.646;2022-09-01T07:24:24;10.77;;;7.97;;
8596;SDS011;4336;49.310;8.646;2022-09-01T07:27:12;9.43;;;7.67;;
8596;SDS011;4336;49.310;8.646;2022-09-01T07:29:38;11.27;;;7.93;;
8596;SDS011;4336;49.310;8.646;2022-09-01T07:32:04;11.23;;;8.57;;
8596;SDS011;4336;49.310;8.646;2022-09-01T07:34:31;8.87;;;7.90;;
8596;SDS011;4336;49.310;8.646;2022-09-01T07:37:00;9.13;;;8.20;;
8596;SDS011;4336;49.310;8.646;2022-09-01T07:39:29;9.47;;;8.47;;
8596;SDS011;4336;49.310;8.646;2022-09-01T07:42:16;9.33;;;8.00;;
8596;SDS011;4336;49.310;8.646;2022-09-01T07:45:03;8.73;;;7.70;;
8596;SDS011;4336;49.310;8.646;2022-09-01T07:47:43;9.30;;;7.80;;
8596;SDS011;4336;49.310;8.646;2022-09-01T07:50:10;9.60;;;7.60;;
8596;SDS011;4336;49.310;8.646;2022-09-01T07:52:41;10.90;;;8.53;;
8596;SDS011;4336;49.310;8.646;2022-09-01T07:57:37;10.47;;;8.40;;
8596;SDS011;4336;49.310;8.646;2022-09-01T08:00:04;8.77;;;7.87;;
8596;SDS011;4336;49.310;8.646;2022-09-01T08:02:40;8.90;;;8.00;;
8596;SDS011;4336;49.310;8.646;2022-09-01T08:05:11;8.40;;;7.57;;
8596;SDS011;4336;49.310;8.646;2022-09-01T08:07:41;8.40;;;7.50;;
8596;SDS011;4336;49.310;8.646;2022-09-01T08:10:08;24.20;;;8.03;;
8596;SDS011;4336;49.310;8.646;2022-09-01T08:12:38;9.87;;;8.17;;
8596;SDS011;4336;49.310;8.646;2022-09-01T08:15:04;10.03;;;7.47;;
8596;SDS011;4336;49.310;8.646;2022-09-01T08:17:32;11.77;;;7.40;;
8596;SDS011;4336;49.310;8.646;2022-09-01T08:20:02;8.07;;;7.20;;
8596;SDS011;4336;49.310;8.646;2022-09-01T08:23:03;10.73;;;7.17;;
8596;SDS011;4336;49.310;8.646;2022-09-01T08:25:35;9.00;;;7.57;;
8596;SDS011;4336;49.310;8.646;2022-09-01T08:28:02;7.80;;;7.10;;
8596;SDS011;4336;49.310;8.646;2022-09-01T08:30:28;7.73;;;6.97;;
8596;SDS011;4336;49.310;8.646;2022-09-01T08:32:56;7.30;;;6.43;;
8596;SDS011;4336;49.310;8.646;2022-09-01T08:35:23;9.87;;;8.00;;
8596;SDS011;4336;49.310;8.646;2022-09-01T08:37:50;7.70;;;7.00;;
8596;SDS011;4336;49.310;8.646;2022-09-01T08:40:17;8.73;;;7.30;;
8596;SDS011;4336;49.310;8.646;2022-09-01T08:45:32;8.50;;;7.00;;
8596;SDS011;4336;49.310;8.646;2022-09-01T08:48:16;7.33;;;6.63;;
8596;SDS011;4336;49.310;8.646;2022-09-01T08:50:50;7.70;;;7.00;;
8596;SDS011;4336;49.310;8.646;2022-09-01T08:53:39;7.87;;;6.97;;
8596;SDS011;4336;49.310;8.646;2022-09-01T08:56:10;7.20;;;6.50;;
8596;SDS011;4336;49.310;8.646;2022-09-01T08:58:36;7.30;;;6.60;;
8596;SDS011;4336;49.310;8.646;2022-09-01T09:01:24;8.30;;;6.43;;
8596;SDS011;4336;49.310;8.646;2022-09-01T09:04:12;7.03;;;6.43;;
8596;SDS011;4336;49.310;8.646;2022-09-01T09:06:59;7.40;;;6.70;;
8596;SDS011;4336;49.310;8.646;2022-09-01T09:09:39;6.63;;;6.03;;
8596;SDS011;4336;49.310;8.646;2022-09-01T09:17:34;24.77;;;6.90;;
8596;SDS011;4336;49.310;8.646;2022-09-01T09:20:07;6.57;;;6.00;;
8596;SDS011;4336;49.310;8.646;2022-09-01T09:22:33;6.05;;;5.55;;
8596;SDS011;4336;49.310;8.646;2022-09-01T09:25:02;6.35;;;5.80;;
8596;SDS011;4336;49.310;8.646;2022-09-01T09:27:34;7.03;;;6.03;;
8596;SDS011;4336;49.310;8.646;2022-09-01T09:30:09;5.72;;;5.22;;
8596;SDS011;4336;49.310;8.646;2022-09-01T09:37:52;6.07;;;5.55;;
8596;SDS011;4336;49.310;8.646;2022-09-01T09:40:27;6.38;;;5.78;;
8596;SDS011;4336;49.310;8.646;2022-09-01T09:47:49;6.88;;;6.28;;
8596;SDS011;4336;49.310;8.646;2022-09-01T09:50:23;6.15;;;5.60;;
8596;SDS011;4336;49.310;8.646;2022-09-01T09:52:52;6.40;;;5.90;;
8596;SDS011;4336;49.310;8.646;2022-09-01T09:55:26;6.50;;;6.00;;
8596;SDS011;4336;49.310;8.646;2022-09-01T09:57:55;6.10;;;5.60;;
8596;SDS011;4336;49.310;8.646;2022-09-01T10:03:01;6.22;;;5.72;;
8596;SDS011;4336;49.310;8.646;2022-09-01T10:08:07;7.05;;;6.45;;
8596;SDS011;4336;49.310;8.646;2022-09-01T10:10:51;7.75;;;5.90;;
8596;SDS011;4336;49.310;8.646;2022-09-01T10:13:22;6.15;;;5.65;;
8596;SDS011;4336;49.310;8.646;2022-09-01T10:15:51;7.05;;;6.45;;
8596;SDS011;4336;49.310;8.646;2022-09-01T10:18:22;6.38;;;5.78;;
8596;SDS011;4336;49.310;8.646;2022-09-01T10:20:55;6.25;;;5.75;;
8596;SDS011;4336;49.310;8.646;2022-09-01T10:23:24;5.93;;;5.43;;
8596;SDS011;4336;49.310;8.646;2022-09-01T10:25:53;7.10;;;6.28;;
8596;SDS011;4336;49.310;8.646;2022-09-01T10:28:25;6.03;;;5.53;;
8596;SDS011;4336;49.310;8.646;2022-09-01T10:30:54;6.10;;;5.50;;
8596;SDS011;4336;49.310;8.646;2022-09-01T10:33:21;7.53;;;5.68;;
8596;SDS011;4336;49.310;8.646;2022-09-01T10:35:48;8.02;;;6.28;;
8596;SDS011;4336;49.310;8.646;2022-09-01T10:38:18;5.82;;;5.43;;
8596;SDS011;4336;49.310;8.646;2022-09-01T10:40:50;5.50;;;5.10;;
8596;SDS011;4336;49.310;8.646;2022-09-01T10:43:41;6.90;;;5.78;;
8596;SDS011;4336;49.310;8.646;2022-09-01T10:48:45;5.50;;;5.10;;
8596;SDS011;4336;49.310;8.646;2022-09-01T10:53:48;5.80;;;5.30;;
8596;SDS011;4336;49.310;8.646;2022-09-01T11:04:05;5.70;;;5.28;;
8596;SDS011;4336;49.310;8.646;2022-09-01T11:09:15;5.88;;;5.40;;
8596;SDS011;4336;49.310;8.646;2022-09-01T11:22:25;5.68;;;5.18;;
8596;SDS011;4336;49.310;8.646;2022-09-01T11:30:17;5.47;;;4.97;;
8596;SDS011;4336;49.310;8.646;2022-09-01T11:32:47;5.65;;;5.15;;
8596;SDS011;4336;49.310;8.646;2022-09-01T11:35:19;5.80;;;5.40;;
8596;SDS011;4336;49.310;8.646;2022-09-01T11:37:50;6.25;;;5.78;;
8596;SDS011;4336;49.310;8.646;2022-09-01T11:40:23;6.43;;;5.63;;
8596;SDS011;4336;49.310;8.646;2022-09-01T11:42:51;5.88;;;5.32;;
8596;SDS011;4336;49.310;8.646;2022-09-01T11:45:19;5.45;;;5.05;;
8596;SDS011;4336;49.310;8.646;2022-09-01T11:47:49;5.63;;;5.20;;
8596;SDS011;4336;49.310;8.646;2022-09-01T11:50:39;5.82;;;5.43;;
8596;SDS011;4336;49.310;8.646;2022-09-01T11:53:07;5.32;;;4.93;;
8596;SDS011;4336;49.310;8.646;2022-09-01T11:55:39;6.03;;;5.55;;
8596;SDS011;4336;49.310;8.646;2022-09-01T11:58:32;6.18;;;5.63;;
8596;SDS011;4336;49.310;8.646;2022-09-01T12:01:12;6.25;;;5.65;;
8596;SDS011;4336;49.310;8.646;2022-09-01T12:03:40;6.05;;;5.55;;
8596;SDS011;4336;49.310;8.646;2022-09-01T12:06:07;5.68;;;5.28;;
8596;SDS011;4336;49.310;8.646;2022-09-01T12:08:35;5.80;;;5.30;;
8596;SDS011;4336;49.310;8.646;2022-09-01T12:11:04;6.07;;;5.00;;
8596;SDS011;4336;49.310;8.646;2022-09-01T12:13:39;5.43;;;4.90;;
8596;SDS011;4336;49.310;8.646;2022-09-01T12:16:06;5.40;;;5.00;;
8596;SDS011;4336;49.310;8.646;2022-09-01T12:18:35;5.60;;;5.20;;
8596;SDS011;4336;49.310;8.646;2022-09-01T12:21:05;5.63;;;5.13;;
8596;SDS011;4336;49.310;8.646;2022-09-01T12:23:39;5.68;;;5.13;;
8596;SDS011;4336;49.310;8.646;2022-09-01T12:26:11;5.97;;;5.30;;
8596;SDS011;4336;49.310;8.646;2022-09-01T12:28:39;5.25;;;4.85;;
8596;SDS011;4336;49.310;8.646;2022-09-01T12:31:15;5.60;;;5.10;;
8596;SDS011;4336;49.310;8.646;2022-09-01T12:33:47;5.68;;;5.28;;
8596;SDS011;4336;49.310;8.646;2022-09-01T12:36:18;5.15;;;4.75;;
8596;SDS011;4336;49.310;8.646;2022-09-01T12:38:50;5.47;;;5.07;;
8596;SDS011;4336;49.310;8.646;2022-09-01T12:41:33;5.80;;;5.40;;
8596;SDS011;4336;49.310;8.646;2022-09-01T12:46:56;6.45;;;5.90;;
8596;SDS011;4336;49.310;8.646;2022-09-01T12:49:33;5.43;;;5.03;;
8596;SDS011;4336;49.310;8.646;2022-09-01T12:54:37;5.90;;;5.40;;
8596;SDS011;4336;49.310;8.646;2022-09-01T12:57:03;5.72;;;5.32;;
8596;SDS011;4336;49.310;8.646;2022-09-01T12:59:30;6.20;;;5.70;;
8596;SDS011;4336;49.310;8.646;2022-09-01T13:01:55;6.35;;;5.85;;
8596;SDS011;4336;49.310;8.646;2022-09-01T13:06:49;5.75;;;5.35;;
8596;SDS011;4336;49.310;8.646;2022-09-01T13:09:16;5.32;;;4.82;;
8596;SDS011;4336;49.310;8.646;2022-09-01T13:11:42;5.30;;;4.90;;
8596;SDS011;4336;49.310;8.646;2022-09-01T13:14:08;5.45;;;5.05;;
8596;SDS011;4336;49.310;8.646;2022-09-01T13:16:34;5.82;;;4.97;;
8596;SDS011;4336;49.310;8.646;2022-09-01T13:19:01;5.57;;;5.13;;
8596;SDS011;4336;49.310;8.646;2022-09-01T13:21:28;6.45;;;5.82;;
8596;SDS011;4336;49.310;8.646;2022-09-01T13:23:54;5.90;;;5.40;;
8596;SDS011;4336;49.310;8.646;2022-09-01T13:26:20;5.82;;;5.32;;
8596;SDS011;4336;49.310;8.646;2022-09-01T13:28:46;6.45;;;5.85;;
8596;SDS011;4336;49.310;8.646;2022-09-01T13:31:12;6.05;;;5.55;;
8596;SDS011;4336;49.310;8.646;2022-09-01T13:33:38;5.65;;;5.25;;
8596;SDS011;4336;49.310;8.646;2022-09-01T13:36:04;5.82;;;5.38;;
8596;SDS011;4336;49.310;8.646;2022-09-01T13:38:30;6.00;;;5.50;;
8596;SDS011;4336;49.310;8.646;2022-09-01T13:40:56;6.20;;;5.70;;
8596;SDS011;4336;49.310;8.646;2022-09-01T13:43:24;5.82;;;5.28;;
8596;SDS011;4336;49.310;8.646;2022-09-01T13:45:54;5.68;;;5.28;;
8596;SDS011;4336;49.310;8.646;2022-09-01T13:48:20;5.82;;;5.43;;
8596;SDS011;4336;49.310;8.646;2022-09-01T13:50:47;5.72;;;5.32;;
8596;SDS011;4336;49.310;8.646;2022-09-01T13:53:14;5.43;;;5.03;;
8596;SDS011;4336;49.310;8.646;2022-09-01T13:55:41;5.45;;;5.05;;
8596;SDS011;4336;49.310;8.646;2022-09-01T13:58:07;5.70;;;5.20;;
8596;SDS011;4336;49.310;8.646;2022-09-01T14:00:37;5.55;;;5.05;;
8596;SDS011;4336;49.310;8.646;2022-09-01T14:03:06;6.13;;;5.53;;
8596;SDS011;4336;49.310;8.646;2022-09-01T14:05:35;5.55;;;5.15;;
8596;SDS011;4336;49.310;8.646;2022-09-01T14:08:04;5.60;;;5.20;;
8596;SDS011;4336;49.310;8.646;2022-09-01T14:10:31;6.05;;;5.55;;
8596;SDS011;4336;49.310;8.646;2022-09-01T14:12:57;6.22;;;5.72;;
8596;SDS011;4336;49.310;8.646;2022-09-01T14:15:24;5.85;;;5.10;;
8596;SDS011;4336;49.310;8.646;2022-09-01T14:17:52;5.50;;;5.10;;
8596;SDS011;4336;49.310;8.646;2022-09-01T14:20:22;5.60;;;5.20;;
8596;SDS011;4336;49.310;8.646;2022-09-01T14:22:49;5.80;;;5.30;;
8596;SDS011;4336;49.310;8.646;2022-09-01T14:25:16;5.10;;;4.72;;
8596;SDS011;4336;49.310;8.646;2022-09-01T14:27:43;6.10;;;5.65;;
8596;SDS011;4336;49.310;8.646;2022-09-01T14:30:11;6.05;;;5.45;;
8596;SDS011;4336;49.310;8.646;2022-09-01T14:32:39;5.50;;;5.10;;
8596;SDS011;4336;49.310;8.646;2022-09-01T14:35:05;5.50;;;5.10;;
8596;SDS011;4336;49.310;8.646;2022-09-01T14:37:32;6.00;;;5.40;;
8596;SDS011;4336;49.310;8.646;2022-09-01T14:39:59;5.53;;;5.13;;
8596;SDS011;4336;49.310;8.646;2022-09-01T14:42:24;5.53;;;5.13;;
8596;SDS011;4336;49.310;8.646;2022-09-01T14:44:53;5.93;;;5.53;;
8596;SDS011;4336;49.310;8.646;2022-09-01T14:47:19;5.25;;;4.85;;
8596;SDS011;4336;49.310;8.646;2022-09-01T14:49:50;5.63;;;5.15;;
8596;SDS011;4336;49.310;8.646;2022-09-01T14:52:17;5.22;;;4.82;;
8596;SDS011;4336;49.310;8.646;2022-09-01T14:54:43;5.32;;;4.93;;
8596;SDS011;4336;49.310;8.646;2022-09-01T14:57:09;5.60;;;5.20;;
8596;SDS011;4336;49.310;8.646;2022-09-01T14:59:35;5.45;;;5.05;;
8596;SDS011;4336;49.310;8.646;2022-09-01T15:02:01;6.38;;;5.78;;
8596;SDS011;4336;49.310;8.646;2022-09-01T15:04:28;5.95;;;5.40;;
8596;SDS011;4336;49.310;8.646;2022-09-01T15:06:53;5.63;;;5.22;;
8596;SDS011;4336;49.310;8.646;2022-09-01T15:09:19;5.85;;;5.35;;
8596;SDS011;4336;49.310;8.646;2022-09-01T15:11:45;5.40;;;5.00;;
8596;SDS011;4336;49.310;8.646;2022-09-01T15:14:11;5.40;;;5.00;;
8596;SDS011;4336;49.310;8.646;2022-09-01T15:16:38;5.90;;;5.50;;
8596;SDS011;4336;49.310;8.646;2022-09-01T15:19:10;6.18;;;5.30;;
8596;SDS011;4336;49.310;8.646;2022-09-01T15:21:37;6.95;;;5.32;;
8596;SDS011;4336;49.310;8.646;2022-09-01T15:24:04;5.45;;;4.95;;
8596;SDS011;4336;49.310;8.646;2022-09-01T15:26:31;5.50;;;5.10;;
8596;SDS011;4336;49.310;8.646;2022-09-01T15:28:57;5.15;;;4.75;;
8596;SDS011;4336;49.310;8.646;2022-09-01T15:31:23;5.47;;;5.07;;
8596;SDS011;4336;49.310;8.646;2022-09-01T15:33:53;5.47;;;5.07;;
8596;SDS011;4336;49.310;8.646;2022-09-01T15:36:20;5.70;;;5.20;;
8596;SDS011;4336;49.310;8.646;2022-09-01T15:38:47;5.43;;;4.95;;
8596;SDS011;4336;49.310;8.646;2022-09-01T15:41:17;6.13;;;5.50;;
8596;SDS011;4336;49.310;8.646;2022-09-01T15:43:44;6.10;;;5.63;;
8596;SDS011;4336;49.310;8.646;2022-09-01T15:46:10;6.30;;;5.70;;
8596;SDS011;4336;49.310;8.646;2022-09-01T15:48:37;6.57;;;5.63;;
8596;SDS011;4336;49.310;8.646;2022-09-01T15:53:55;5.90;;;5.32;;
8596;SDS011;4336;49.310;8.646;2022-09-01T15:56:22;18.77;;;5.55;;
8596;SDS011;4336;49.310;8.646;2022-09-01T15:58:48;7.57;;;6.18;;
8596;SDS011;4336;49.310;8.646;2022-09-01T16:01:15;6.45;;;5.43;;
8596;SDS011;4336;49.310;8.646;2022-09-01T16:03:41;5.95;;;5.45;;
8596;SDS011;4336;49.310;8.646;2022-09-01T16:06:07;6.15;;;5.65;;
8596;SDS011;4336;49.310;8.646;2022-09-01T16:08:34;5.95;;;5.53;;
8596;SDS011;4336;49.310;8.646;2022-09-01T16:11:00;5.88;;;5.47;;
8596;SDS011;4336;49.310;8.646;2022-09-01T16:13:34;6.25;;;5.60;;
8596;SDS011;4336;49.310;8.646;2022-09-01T16:18:57;5.40;;;5.00;;
8596;SDS011;4336;49.310;8.646;2022-09-01T16:21:59;6.47;;;5.97;;
8596;SDS011;4336;49.310;8.646;2022-09-01T16:24:37;6.07;;;5.57;;
8596;SDS011;4336;49.310;8.646;2022-09-01T16:27:11;6.13;;;5.63;;
8596;SDS011;4336;49.310;8.646;2022-09-01T16:29:46;5.47;;;5.03;;
8596;SDS011;4336;49.310;8.646;2022-09-01T16:32:15;5.65;;;5.05;;
8596;SDS011;4336;49.310;8.646;2022-09-01T16:34:44;8.57;;;5.73;;
8596;SDS011;4336;49.310;8.646;2022-09-01T16:39:58;6.33;;;5.30;;
8596;SDS011;4336;49.310;8.646;2022-09-01T16:48:17;5.50;;;5.10;;